createdAt,value
2022-08-03T00:00:25.208Z,1003.28
2022-08-03T00:01:25.241Z,1003.25
2022-08-03T00:02:25.181Z,1003.26
2022-08-03T00:03:25.193Z,1003.23
2022-08-03T00:04:34.171Z,1003.24
2022-08-03T00:05:25.151Z,1003.25
2022-08-03T00:06:25.142Z,1003.28
2022-08-03T00:07:25.160Z,1003.26
2022-08-03T00:08:25.124Z,1003.27
2022-08-03T00:09:25.115Z,1003.25
2022-08-03T00:10:25.132Z,1003.24
2022-08-03T00:11:25.095Z,1003.23
2022-08-03T00:12:25.112Z,1003.22
2022-08-03T00:13:25.082Z,1003.26
2022-08-03T00:14:25.071Z,1003.19
2022-08-03T00:15:25.054Z,1003.21
2022-08-03T00:16:25.047Z,1003.19
2022-08-03T00:17:25.066Z,1003.14
2022-08-03T00:18:25.030Z,1003.16
2022-08-03T00:19:25.023Z,1003.20
2022-08-03T00:20:25.013Z,1003.18
2022-08-03T00:21:25.004Z,1003.18
2022-08-03T00:22:24.994Z,1003.16
2022-08-03T00:23:25.004Z,1003.17
2022-08-03T00:24:24.971Z,1003.13
2022-08-03T00:25:24.962Z,1003.15
2022-08-03T00:26:24.953Z,1003.17
2022-08-03T00:27:24.941Z,1003.17
2022-08-03T00:28:24.962Z,1003.18
2022-08-03T00:29:24.925Z,1003.14
2022-08-03T00:30:30.117Z,1003.14
2022-08-03T00:31:45.016Z,1003.16
2022-08-03T00:32:24.929Z,1003.15
2022-08-03T00:33:24.882Z,1003.14
2022-08-03T00:34:34.555Z,1003.14
2022-08-03T00:35:35.170Z,1003.16
2022-08-03T00:36:24.858Z,1003.15
2022-08-03T00:37:24.847Z,1003.08
2022-08-03T00:38:24.837Z,1003.09
2022-08-03T00:39:24.827Z,1003.10
2022-08-03T00:40:24.819Z,1003.10
2022-08-03T00:41:24.807Z,1003.10
2022-08-03T00:42:24.804Z,1003.07
2022-08-03T00:43:24.823Z,1003.06
2022-08-03T00:44:24.782Z,1003.08
2022-08-03T00:45:24.769Z,1003.07
2022-08-03T00:46:24.764Z,1003.08
2022-08-03T00:47:24.749Z,1003.12
2022-08-03T00:48:33.785Z,1003.10
2022-08-03T00:49:24.794Z,1003.08
2022-08-03T00:50:24.721Z,1003.07
2022-08-03T00:51:24.709Z,1003.04
2022-08-03T00:52:24.705Z,1003.03
2022-08-03T00:53:24.694Z,1003.06
2022-08-03T00:54:24.714Z,1003.00
2022-08-03T00:55:24.676Z,1003.03
2022-08-03T00:56:24.693Z,1003.01
2022-08-03T00:57:24.652Z,1002.99
2022-08-03T00:58:24.644Z,1003.01
2022-08-03T00:59:24.636Z,1003.02
2022-08-03T01:00:24.623Z,1003.00
2022-08-03T01:01:24.731Z,1003.03
2022-08-03T01:02:24.606Z,1003.00
2022-08-03T01:03:24.593Z,1003.02
2022-08-03T01:04:24.589Z,1002.99
2022-08-03T01:05:24.577Z,1003.01
2022-08-03T01:06:24.571Z,1003.01
2022-08-03T01:07:24.606Z,1003.03
2022-08-03T01:08:24.548Z,1003.01
2022-08-03T01:09:24.537Z,1003.03
2022-08-03T01:10:24.528Z,1002.96
2022-08-03T01:11:24.521Z,1002.96
2022-08-03T01:12:24.510Z,1002.97
2022-08-03T01:14:03.626Z,1002.94
2022-08-03T01:14:26.379Z,1002.99
2022-08-03T01:15:24.479Z,1002.95
2022-08-03T01:16:25.910Z,1002.93
2022-08-03T01:17:24.459Z,1002.93
2022-08-03T01:18:24.485Z,1002.96
2022-08-03T01:19:24.442Z,1002.92
2022-08-03T01:20:24.431Z,1002.96
2022-08-03T01:21:24.423Z,1002.97
2022-08-03T01:22:24.413Z,1002.98
2022-08-03T01:23:24.426Z,1003.01
2022-08-03T01:24:24.397Z,1002.98
2022-08-03T01:25:24.384Z,1002.97
2022-08-03T01:26:24.374Z,1002.96
2022-08-03T01:27:24.367Z,1002.96
2022-08-03T01:28:24.406Z,1002.98
2022-08-03T01:29:24.348Z,1002.99
2022-08-03T01:30:24.338Z,1002.96
2022-08-03T01:31:24.328Z,1002.97
2022-08-03T01:32:53.303Z,1002.94
2022-08-03T01:33:24.305Z,1002.93
2022-08-03T01:34:24.320Z,1002.93
2022-08-03T01:35:24.291Z,1002.95
2022-08-03T01:36:24.290Z,1002.90
2022-08-03T01:37:24.267Z,1002.93
2022-08-03T01:38:24.289Z,1002.92
2022-08-03T01:39:24.251Z,1002.91
2022-08-03T01:40:24.245Z,1002.93
2022-08-03T01:41:24.227Z,1002.91
2022-08-03T01:42:24.218Z,1002.86
2022-08-03T01:43:55.376Z,1002.86
2022-08-03T01:44:28.231Z,1002.82
2022-08-03T01:45:24.201Z,1002.84
2022-08-03T01:46:24.183Z,1002.84
2022-08-03T01:47:24.169Z,1002.87
2022-08-03T01:48:24.163Z,1002.86
2022-08-03T01:49:24.264Z,1002.87
2022-08-03T01:50:24.143Z,1002.85
2022-08-03T01:51:24.153Z,1002.84
2022-08-03T01:52:24.133Z,1002.88
2022-08-03T01:53:24.111Z,1002.88
2022-08-03T01:54:24.100Z,1002.87
2022-08-03T01:55:24.089Z,1002.85
2022-08-03T01:56:24.110Z,1002.84
2022-08-03T01:57:24.071Z,1002.84
2022-08-03T01:58:24.066Z,1002.79
2022-08-03T01:59:24.077Z,1002.84
2022-08-03T02:00:24.077Z,1002.86
2022-08-03T02:01:24.060Z,1002.86
2022-08-03T02:02:32.738Z,1002.83
2022-08-03T02:03:24.011Z,1002.82
2022-08-03T02:04:24.006Z,1002.80
2022-08-03T02:05:23.994Z,1002.80
2022-08-03T02:07:02.539Z,1002.81
2022-08-03T02:07:24.000Z,1002.83
2022-08-03T02:08:23.965Z,1002.82
2022-08-03T02:09:23.955Z,1002.83
2022-08-03T02:10:34.630Z,1002.81
2022-08-03T02:11:23.933Z,1002.81
2022-08-03T02:12:23.950Z,1002.82
2022-08-03T02:13:23.912Z,1002.85
2022-08-03T02:14:23.932Z,1002.79
2022-08-03T02:15:23.890Z,1002.80
2022-08-03T02:16:23.887Z,1002.80
2022-08-03T02:17:38.589Z,1002.81
2022-08-03T02:18:23.873Z,1002.80
2022-08-03T02:19:23.855Z,1002.80
2022-08-03T02:20:23.847Z,1002.78
2022-08-03T02:21:56.316Z,1002.77
2022-08-03T02:22:23.865Z,1002.81
2022-08-03T02:23:23.817Z,1002.79
2022-08-03T02:24:23.805Z,1002.80
2022-08-03T02:25:23.802Z,1002.80
2022-08-03T02:26:23.785Z,1002.79
2022-08-03T02:27:23.826Z,1002.79
2022-08-03T02:28:23.767Z,1002.79
2022-08-03T02:29:39.262Z,1002.78
2022-08-03T02:30:23.746Z,1002.79
2022-08-03T02:31:23.734Z,1002.79
2022-08-03T02:32:23.728Z,1002.72
2022-08-03T02:33:23.719Z,1002.76
2022-08-03T02:34:23.705Z,1002.75
2022-08-03T02:35:23.697Z,1002.79
2022-08-03T02:36:23.683Z,1002.79
2022-08-03T02:37:23.705Z,1002.73
2022-08-03T02:38:23.666Z,1002.79
2022-08-03T02:39:23.654Z,1002.76
2022-08-03T02:40:23.647Z,1002.76
2022-08-03T02:41:23.638Z,1002.74
2022-08-03T02:42:23.620Z,1002.79
2022-08-03T02:43:23.619Z,1002.73
2022-08-03T02:44:23.612Z,1002.73
2022-08-03T02:45:23.631Z,1002.71
2022-08-03T02:46:23.640Z,1002.68
2022-08-03T02:47:23.578Z,1002.67
2022-08-03T02:48:23.575Z,1002.68
2022-08-03T02:49:40.761Z,1002.70
2022-08-03T02:50:23.631Z,1002.66
2022-08-03T02:51:23.540Z,1002.68
2022-08-03T02:52:23.601Z,1002.64
2022-08-03T02:53:23.517Z,1002.66
2022-08-03T02:54:23.504Z,1002.70
2022-08-03T02:55:23.524Z,1002.67
2022-08-03T02:56:23.515Z,1002.66
2022-08-03T02:57:23.505Z,1002.65
2022-08-03T02:58:23.473Z,1002.64
2022-08-03T02:59:23.459Z,1002.63
2022-08-03T03:00:27.885Z,1002.63
2022-08-03T03:01:23.529Z,1002.64
2022-08-03T03:02:23.422Z,1002.61
2022-08-03T03:03:23.430Z,1002.70
2022-08-03T03:04:24.938Z,1002.67
2022-08-03T03:05:52.241Z,1002.69
2022-08-03T03:06:23.382Z,1002.67
2022-08-03T03:07:23.404Z,1002.62
2022-08-03T03:08:26.724Z,1002.65
2022-08-03T03:09:23.357Z,1002.66
2022-08-03T03:10:23.373Z,1002.72
2022-08-03T03:11:23.349Z,1002.73
2022-08-03T03:12:23.321Z,1002.71
2022-08-03T03:13:23.322Z,1002.73
2022-08-03T03:14:33.181Z,1002.72
2022-08-03T03:15:23.343Z,1002.73
2022-08-03T03:16:23.279Z,1002.72
2022-08-03T03:17:23.271Z,1002.72
2022-08-03T03:18:23.281Z,1002.70
2022-08-03T03:19:23.252Z,1002.72
2022-08-03T03:20:29.758Z,1002.75
2022-08-03T03:21:23.319Z,1002.76
2022-08-03T03:22:23.221Z,1002.76
2022-08-03T03:23:23.222Z,1002.74
2022-08-03T03:24:23.207Z,1002.74
2022-08-03T03:25:23.201Z,1002.74
2022-08-03T03:26:23.186Z,1002.74
2022-08-03T03:27:23.201Z,1002.76
2022-08-03T03:28:23.157Z,1002.75
2022-08-03T03:29:23.150Z,1002.71
2022-08-03T03:30:23.139Z,1002.76
2022-08-03T03:31:23.132Z,1002.72
2022-08-03T03:32:23.175Z,1002.73
2022-08-03T03:33:23.114Z,1002.76
2022-08-03T03:34:23.109Z,1002.72
2022-08-03T03:35:23.095Z,1002.76
2022-08-03T03:36:23.077Z,1002.77
2022-08-03T03:37:23.073Z,1002.80
2022-08-03T03:38:23.083Z,1002.76
2022-08-03T03:39:23.053Z,1002.72
2022-08-03T03:40:23.056Z,1002.76
2022-08-03T03:41:23.031Z,1002.77
2022-08-03T03:42:23.020Z,1002.73
2022-08-03T03:43:23.060Z,1002.73
2022-08-03T03:44:23.021Z,1002.79
2022-08-03T03:45:22.994Z,1002.79
2022-08-03T03:46:22.977Z,1002.80
2022-08-03T03:47:32.333Z,1002.84
2022-08-03T03:48:22.955Z,1002.81
2022-08-03T03:49:23.022Z,1002.79
2022-08-03T03:50:22.937Z,1002.82
2022-08-03T03:51:22.938Z,1002.83
2022-08-03T03:52:22.919Z,1002.78
2022-08-03T03:53:22.967Z,1002.81
2022-08-03T03:54:25.563Z,1002.83
2022-08-03T03:55:22.884Z,1002.81
2022-08-03T03:56:22.874Z,1002.86
2022-08-03T03:57:22.872Z,1002.88
2022-08-03T03:58:22.850Z,1002.88
2022-08-03T03:59:22.874Z,1002.83
2022-08-03T04:00:22.835Z,1002.81
2022-08-03T04:01:22.892Z,1002.83
2022-08-03T04:02:22.822Z,1002.85
2022-08-03T04:03:22.808Z,1002.82
2022-08-03T04:04:22.835Z,1002.83
2022-08-03T04:05:22.811Z,1002.81
2022-08-03T04:06:22.774Z,1002.83
2022-08-03T04:07:22.782Z,1002.87
2022-08-03T04:08:22.753Z,1002.88
2022-08-03T04:09:22.743Z,1002.88
2022-08-03T04:10:22.763Z,1002.87
2022-08-03T04:11:30.295Z,1002.92
2022-08-03T04:12:22.708Z,1002.90
2022-08-03T04:13:22.702Z,1002.90
2022-08-03T04:14:22.726Z,1002.82
2022-08-03T04:15:22.683Z,1002.81
2022-08-03T04:16:22.669Z,1002.89
2022-08-03T04:17:22.661Z,1002.83
2022-08-03T04:18:22.651Z,1002.84
2022-08-03T04:19:23.460Z,1002.84
2022-08-03T04:20:22.662Z,1002.85
2022-08-03T04:21:22.620Z,1002.81
2022-08-03T04:22:22.607Z,1002.79
2022-08-03T04:23:22.599Z,1002.77
2022-08-03T04:24:22.585Z,1002.78
2022-08-03T04:25:22.621Z,1002.80
2022-08-03T04:26:22.570Z,1002.80
2022-08-03T04:27:22.557Z,1002.81
2022-08-03T04:28:30.807Z,1002.86
2022-08-03T04:29:22.537Z,1002.87
2022-08-03T04:30:22.550Z,1002.86
2022-08-03T04:31:22.520Z,1002.89
2022-08-03T04:32:22.540Z,1002.90
2022-08-03T04:33:22.497Z,1002.83
2022-08-03T04:34:22.489Z,1002.88
2022-08-03T04:35:22.479Z,1002.87
2022-08-03T04:36:22.465Z,1002.86
2022-08-03T04:37:22.486Z,1002.90
2022-08-03T04:38:22.448Z,1002.88
2022-08-03T04:39:22.435Z,1002.91
2022-08-03T04:40:22.917Z,1002.96
2022-08-03T04:41:22.414Z,1002.91
2022-08-03T04:42:22.523Z,1002.89
2022-08-03T04:43:22.392Z,1002.92
2022-08-03T04:44:22.382Z,1002.92
2022-08-03T04:45:22.373Z,1002.94
2022-08-03T04:46:22.386Z,1002.95
2022-08-03T04:47:22.350Z,1002.94
2022-08-03T04:48:22.343Z,1002.98
2022-08-03T04:49:22.462Z,1002.95
2022-08-03T04:50:22.347Z,1002.98
2022-08-03T04:51:22.318Z,1002.97
2022-08-03T04:52:22.301Z,1002.96
2022-08-03T04:53:22.327Z,1002.98
2022-08-03T04:54:22.277Z,1002.98
2022-08-03T04:55:22.265Z,1002.98
2022-08-03T04:56:22.278Z,1002.97
2022-08-03T04:57:23.568Z,1002.97
2022-08-03T04:58:22.239Z,1002.95
2022-08-03T04:59:22.236Z,1002.99
2022-08-03T05:00:22.216Z,1002.96
2022-08-03T05:01:22.304Z,1003.00
2022-08-03T05:02:22.193Z,1002.99
2022-08-03T05:03:25.057Z,1002.97
2022-08-03T05:04:22.174Z,1003.00
2022-08-03T05:05:22.167Z,1002.99
2022-08-03T05:06:22.154Z,1002.98
2022-08-03T05:07:25.019Z,1002.99
2022-08-03T05:08:28.049Z,1003.01
2022-08-03T05:09:50.783Z,1002.99
2022-08-03T05:10:22.115Z,1003.05
2022-08-03T05:11:22.107Z,1002.99
2022-08-03T05:12:22.094Z,1003.02
2022-08-03T05:13:22.111Z,1003.00
2022-08-03T05:14:28.089Z,1003.00
2022-08-03T05:15:22.063Z,1002.99
2022-08-03T05:16:22.057Z,1003.01
2022-08-03T05:17:22.047Z,1002.99
2022-08-03T05:18:22.063Z,1003.01
2022-08-03T05:19:22.085Z,1002.99
2022-08-03T05:20:22.011Z,1003.01
2022-08-03T05:21:22.000Z,1003.01
2022-08-03T05:22:21.992Z,1003.01
2022-08-03T05:23:21.984Z,1003.01
2022-08-03T05:24:21.972Z,1003.01
2022-08-03T05:25:27.100Z,1003.03
2022-08-03T05:26:21.952Z,1003.03
2022-08-03T05:27:21.945Z,1003.05
2022-08-03T05:28:21.933Z,1003.04
2022-08-03T05:29:21.925Z,1002.99
2022-08-03T05:30:30.994Z,1002.97
2022-08-03T05:31:21.910Z,1002.97
2022-08-03T05:32:22.250Z,1002.95
2022-08-03T05:33:21.894Z,1002.97
2022-08-03T05:34:21.870Z,1002.95
2022-08-03T05:35:57.736Z,1002.93
2022-08-03T05:36:21.907Z,1002.93
2022-08-03T05:37:21.843Z,1002.96
2022-08-03T05:38:28.139Z,1002.94
2022-08-03T05:39:21.826Z,1002.96
2022-08-03T05:40:21.807Z,1003.00
2022-08-03T05:41:36.532Z,1002.98
2022-08-03T05:42:21.829Z,1003.00
2022-08-03T05:43:21.783Z,1003.00
2022-08-03T05:44:21.767Z,1002.97
2022-08-03T05:45:25.412Z,1002.97
2022-08-03T05:46:21.747Z,1003.00
2022-08-03T05:47:21.738Z,1003.02
2022-08-03T05:48:21.761Z,1003.01
2022-08-03T05:49:21.772Z,1003.02
2022-08-03T05:50:21.709Z,1003.00
2022-08-03T05:51:21.700Z,1003.03
2022-08-03T05:52:21.838Z,1002.97
2022-08-03T05:53:21.691Z,1003.02
2022-08-03T05:54:21.669Z,1003.00
2022-08-03T05:55:21.660Z,1003.00
2022-08-03T05:56:21.652Z,1003.02
2022-08-03T05:57:21.661Z,1003.04
2022-08-03T05:58:21.655Z,1003.05
2022-08-03T05:59:37.695Z,1003.02
2022-08-03T06:00:21.607Z,1002.99
2022-08-03T06:01:21.630Z,1003.02
2022-08-03T06:02:21.587Z,1003.04
2022-08-03T06:03:21.609Z,1003.04
2022-08-03T06:04:21.570Z,1003.04
2022-08-03T06:05:21.571Z,1003.04
2022-08-03T06:06:21.547Z,1003.07
2022-08-03T06:07:21.549Z,1003.04
2022-08-03T06:08:21.563Z,1003.06
2022-08-03T06:09:21.522Z,1003.02
2022-08-03T06:10:35.662Z,1003.05
2022-08-03T06:11:21.526Z,1003.09
2022-08-03T06:12:21.504Z,1003.07
2022-08-03T06:13:21.491Z,1003.01
2022-08-03T06:14:21.469Z,1003.05
2022-08-03T06:15:21.504Z,1003.00
2022-08-03T06:16:21.452Z,1003.04
2022-08-03T06:17:21.444Z,1003.02
2022-08-03T06:18:21.430Z,1003.03
2022-08-03T06:19:21.454Z,1003.02
2022-08-03T06:20:21.417Z,1003.00
2022-08-03T06:21:21.406Z,1002.99
2022-08-03T06:22:21.445Z,1003.00
2022-08-03T06:23:21.382Z,1002.96
2022-08-03T06:24:21.404Z,1002.95
2022-08-03T06:25:21.522Z,1002.98
2022-08-03T06:26:21.376Z,1002.97
2022-08-03T06:27:21.344Z,1002.99
2022-08-03T06:28:53.368Z,1002.96
2022-08-03T06:29:21.332Z,1002.98
2022-08-03T06:30:21.592Z,1003.00
2022-08-03T06:31:21.311Z,1003.02
2022-08-03T06:32:21.292Z,1003.01
2022-08-03T06:33:21.295Z,1003.05
2022-08-03T06:34:33.715Z,1003.03
2022-08-03T06:35:21.271Z,1003.05
2022-08-03T06:36:21.258Z,1003.06
2022-08-03T06:37:21.249Z,1003.04
2022-08-03T06:38:21.238Z,1003.09
2022-08-03T06:39:23.193Z,1003.08
2022-08-03T06:40:21.772Z,1003.04
2022-08-03T06:41:21.278Z,1003.09
2022-08-03T06:42:21.209Z,1003.11
2022-08-03T06:43:21.191Z,1003.11
2022-08-03T06:44:21.181Z,1003.08
2022-08-03T06:45:21.168Z,1003.08
2022-08-03T06:46:21.160Z,1003.02
2022-08-03T06:47:21.175Z,1003.03
2022-08-03T06:48:21.144Z,1003.08
2022-08-03T06:49:21.194Z,1003.12
2022-08-03T06:50:26.032Z,1003.08
2022-08-03T06:51:21.111Z,1003.09
2022-08-03T06:52:44.871Z,1003.10
2022-08-03T06:53:21.483Z,1003.09
2022-08-03T06:54:21.089Z,1003.10
2022-08-03T06:55:21.083Z,1003.11
2022-08-03T06:56:21.065Z,1003.10
2022-08-03T06:57:21.053Z,1003.13
2022-08-03T06:58:21.108Z,1003.10
2022-08-03T07:00:10.364Z,1003.15
2022-08-03T07:00:21.355Z,1003.14
2022-08-03T07:01:21.053Z,1003.11
2022-08-03T07:02:21.159Z,1003.17
2022-08-03T07:03:20.997Z,1003.18
2022-08-03T07:04:20.996Z,1003.16
2022-08-03T07:05:20.981Z,1003.16
2022-08-03T07:06:20.973Z,1003.16
2022-08-03T07:07:20.962Z,1003.14
2022-08-03T07:08:33.800Z,1003.17
2022-08-03T07:09:20.983Z,1003.13
2022-08-03T07:10:20.935Z,1003.14
2022-08-03T07:11:20.922Z,1003.17
2022-08-03T07:12:20.913Z,1003.18
2022-08-03T07:13:20.913Z,1003.13
2022-08-03T07:14:20.898Z,1003.12
2022-08-03T07:15:54.287Z,1003.17
2022-08-03T07:16:20.877Z,1003.16
2022-08-03T07:17:20.869Z,1003.12
2022-08-03T07:18:29.562Z,1003.12
2022-08-03T07:19:20.862Z,1003.11
2022-08-03T07:20:20.897Z,1003.14
2022-08-03T07:21:20.839Z,1003.13
2022-08-03T07:22:20.823Z,1003.10
2022-08-03T07:23:20.815Z,1003.14
2022-08-03T07:24:20.807Z,1003.13
2022-08-03T07:25:20.792Z,1003.15
2022-08-03T07:26:20.789Z,1003.15
2022-08-03T07:27:20.787Z,1003.17
2022-08-03T07:28:20.777Z,1003.15
2022-08-03T07:29:20.762Z,1003.18
2022-08-03T07:30:20.749Z,1003.19
2022-08-03T07:31:20.738Z,1003.15
2022-08-03T07:32:20.737Z,1003.21
2022-08-03T07:33:20.966Z,1003.18
2022-08-03T07:34:20.715Z,1003.18
2022-08-03T07:35:24.744Z,1003.19
2022-08-03T07:36:20.718Z,1003.22
2022-08-03T07:37:20.710Z,1003.21
2022-08-03T07:38:21.223Z,1003.16
2022-08-03T07:39:20.664Z,1003.17
2022-08-03T07:40:20.657Z,1003.20
2022-08-03T07:41:20.655Z,1003.16
2022-08-03T07:42:20.709Z,1003.18
2022-08-03T07:43:20.629Z,1003.16
2022-08-03T07:44:20.629Z,1003.19
2022-08-03T07:45:20.612Z,1003.17
2022-08-03T07:46:20.608Z,1003.18
2022-08-03T07:47:22.637Z,1003.17
2022-08-03T07:48:20.589Z,1003.15
2022-08-03T07:49:20.626Z,1003.19
2022-08-03T07:50:20.671Z,1003.20
2022-08-03T07:51:20.559Z,1003.17
2022-08-03T07:52:20.557Z,1003.20
2022-08-03T07:53:20.740Z,1003.19
2022-08-03T07:54:21.000Z,1003.22
2022-08-03T07:55:20.542Z,1003.22
2022-08-03T07:56:20.521Z,1003.21
2022-08-03T07:57:20.510Z,1003.13
2022-08-03T07:58:24.000Z,1003.18
2022-08-03T07:59:20.515Z,1003.15
2022-08-03T08:00:20.532Z,1003.18
2022-08-03T08:01:20.525Z,1003.14
2022-08-03T08:02:20.472Z,1003.14
2022-08-03T08:03:20.457Z,1003.11
2022-08-03T08:04:20.470Z,1003.07
2022-08-03T08:05:20.437Z,1003.08
2022-08-03T08:06:20.461Z,1003.05
2022-08-03T08:07:20.738Z,1003.09
2022-08-03T08:08:20.416Z,1003.08
2022-08-03T08:09:20.427Z,1003.09
2022-08-03T08:10:20.409Z,1003.08
2022-08-03T08:11:20.394Z,1003.08
2022-08-03T08:12:20.658Z,1003.11
2022-08-03T08:13:20.433Z,1003.17
2022-08-03T08:14:20.365Z,1003.14
2022-08-03T08:15:20.358Z,1003.17
2022-08-03T08:16:20.361Z,1003.18
2022-08-03T08:17:20.338Z,1003.15
2022-08-03T08:18:20.333Z,1003.17
2022-08-03T08:19:20.352Z,1003.17
2022-08-03T08:20:27.059Z,1003.15
2022-08-03T08:21:20.321Z,1003.17
2022-08-03T08:22:29.829Z,1003.15
2022-08-03T08:23:41.898Z,1003.14
2022-08-03T08:24:20.463Z,1003.13
2022-08-03T08:25:20.281Z,1003.12
2022-08-03T08:26:20.266Z,1003.16
2022-08-03T08:27:20.256Z,1003.17
2022-08-03T08:28:29.284Z,1003.18
2022-08-03T08:29:20.246Z,1003.20
2022-08-03T08:30:20.341Z,1003.17
2022-08-03T08:31:20.245Z,1003.13
2022-08-03T08:32:20.223Z,1003.20
2022-08-03T08:33:22.569Z,1003.15
2022-08-03T08:34:20.234Z,1003.19
2022-08-03T08:35:20.197Z,1003.17
2022-08-03T08:36:20.194Z,1003.21
2022-08-03T08:37:20.189Z,1003.16
2022-08-03T08:38:20.176Z,1003.19
2022-08-03T08:39:20.166Z,1003.19
2022-08-03T08:40:20.189Z,1003.21
2022-08-03T08:41:20.194Z,1003.20
2022-08-03T08:42:20.143Z,1003.20
2022-08-03T08:43:20.135Z,1003.18
2022-08-03T08:44:20.132Z,1003.23
2022-08-03T08:45:20.123Z,1003.20
2022-08-03T08:46:23.497Z,1003.15
2022-08-03T08:47:20.103Z,1003.17
2022-08-03T08:48:20.099Z,1003.22
2022-08-03T08:49:20.118Z,1003.20
2022-08-03T08:50:27.602Z,1003.16
2022-08-03T08:51:20.101Z,1003.19
2022-08-03T08:52:25.267Z,1003.14
2022-08-03T08:53:25.477Z,1003.15
2022-08-03T08:54:20.054Z,1003.15
2022-08-03T08:55:20.045Z,1003.14
2022-08-03T08:56:20.049Z,1003.17
2022-08-03T08:57:41.493Z,1003.12
2022-08-03T08:58:21.101Z,1003.13
2022-08-03T08:59:20.017Z,1003.12
2022-08-03T09:00:20.010Z,1003.18
2022-08-03T09:01:20.062Z,1003.14
2022-08-03T09:02:20.102Z,1003.13
2022-08-03T09:03:29.354Z,1003.14
2022-08-03T09:04:20.014Z,1003.03
2022-08-03T09:05:27.838Z,1003.03
2022-08-03T09:06:20.006Z,1003.09
2022-08-03T09:07:29.156Z,1003.10
2022-08-03T09:08:19.984Z,1003.10
2022-08-03T09:10:11.646Z,1003.11
2022-08-03T09:10:20.041Z,1003.12
2022-08-03T09:11:19.968Z,1003.06
2022-08-03T09:12:40.962Z,1003.10
2022-08-03T09:13:20.083Z,1003.04
2022-08-03T09:14:33.692Z,1003.01
2022-08-03T09:15:20.054Z,1003.04
2022-08-03T09:16:19.907Z,1003.03
2022-08-03T09:17:20.222Z,1003.01
2022-08-03T09:18:19.889Z,1003.00
2022-08-03T09:19:19.882Z,1003.02
2022-08-03T09:20:19.882Z,1003.00
2022-08-03T09:21:33.951Z,1002.97
2022-08-03T09:22:19.887Z,1003.03
2022-08-03T09:23:51.443Z,1003.00
2022-08-03T09:24:31.308Z,1002.98
2022-08-03T09:25:24.588Z,1002.95
2022-08-03T09:26:19.840Z,1002.98
2022-08-03T09:27:19.844Z,1002.98
2022-08-03T09:28:32.338Z,1002.95
2022-08-03T09:29:19.857Z,1002.95
2022-08-03T09:30:33.125Z,1002.95
2022-08-03T09:31:19.809Z,1002.90
2022-08-03T09:32:19.810Z,1002.96
2022-08-03T09:33:19.815Z,1002.94
2022-08-03T09:34:19.795Z,1002.95
2022-08-03T09:35:33.150Z,1002.84
2022-08-03T09:36:19.781Z,1002.87
2022-08-03T09:37:20.034Z,1002.87
2022-08-03T09:38:19.771Z,1002.90
2022-08-03T09:39:19.769Z,1002.93
2022-08-03T09:40:19.767Z,1002.91
2022-08-03T09:41:19.757Z,1002.87
2022-08-03T09:42:23.553Z,1002.91
2022-08-03T09:43:19.753Z,1002.86
2022-08-03T09:44:25.234Z,1002.86
2022-08-03T09:45:19.775Z,1002.87
2022-08-03T09:46:19.750Z,1002.88
2022-08-03T09:47:19.943Z,1002.85
2022-08-03T09:48:19.739Z,1002.80
2022-08-03T09:49:19.817Z,1002.80
2022-08-03T09:50:19.734Z,1002.84
2022-08-03T09:52:28.878Z,1002.80
2022-08-03T09:52:31.714Z,1002.84
2022-08-03T09:53:19.720Z,1002.80
2022-08-03T09:54:20.799Z,1002.77
2022-08-03T09:56:30.522Z,1002.72
2022-08-03T09:56:34.556Z,1002.74
2022-08-03T09:57:19.853Z,1002.73
2022-08-03T09:58:19.765Z,1002.70
2022-08-03T09:59:19.713Z,1002.72
2022-08-03T10:00:19.712Z,1002.67
2022-08-03T10:01:24.242Z,1002.67
2022-08-03T10:02:19.711Z,1002.67
2022-08-03T10:03:19.705Z,1002.58
2022-08-03T10:04:19.730Z,1002.62
2022-08-03T10:05:20.106Z,1002.64
2022-08-03T10:06:19.710Z,1002.66
2022-08-03T10:07:20.045Z,1002.70
2022-08-03T10:08:19.702Z,1002.57
2022-08-03T10:09:19.750Z,1002.60
2022-08-03T10:10:28.933Z,1002.54
2022-08-03T10:11:19.700Z,1002.50
2022-08-03T10:12:19.695Z,1002.58
2022-08-03T10:13:19.693Z,1002.63
2022-08-03T10:14:19.930Z,1002.55
2022-08-03T10:16:21.153Z,1002.54
2022-08-03T10:16:24.988Z,1002.55
2022-08-03T10:17:19.804Z,1002.49
2022-08-03T10:18:19.692Z,1002.45
2022-08-03T10:19:19.726Z,1002.43
2022-08-03T10:20:19.719Z,1002.44
2022-08-03T10:21:19.710Z,1002.44
2022-08-03T10:22:19.691Z,1002.40
2022-08-03T10:23:19.689Z,1002.43
2022-08-03T10:24:19.697Z,1002.42
2022-08-03T10:25:19.752Z,1002.40
2022-08-03T10:26:19.696Z,1002.35
2022-08-03T10:27:19.989Z,1002.34
2022-08-03T10:28:19.693Z,1002.26
2022-08-03T10:29:19.710Z,1002.28
2022-08-03T10:30:19.698Z,1002.21
2022-08-03T10:31:19.719Z,1002.25
2022-08-03T10:32:19.705Z,1002.30
2022-08-03T10:33:49.472Z,1002.27
2022-08-03T10:34:19.697Z,1002.19
2022-08-03T10:35:21.254Z,1002.22
2022-08-03T10:36:19.748Z,1002.21
2022-08-03T10:37:19.966Z,1002.25
2022-08-03T10:38:19.705Z,1002.26
2022-08-03T10:39:19.709Z,1002.30
2022-08-03T10:40:39.507Z,1002.33
2022-08-03T10:41:19.726Z,1002.26
2022-08-03T10:42:19.695Z,1002.32
2022-08-03T10:43:19.728Z,1002.28
2022-08-03T10:44:19.695Z,1002.33
2022-08-03T10:45:19.852Z,1002.27
2022-08-03T10:46:19.691Z,1002.27
2022-08-03T10:47:20.001Z,1002.32
2022-08-03T10:48:19.691Z,1002.27
2022-08-03T10:49:33.829Z,1002.31
2022-08-03T10:50:19.684Z,1002.31
2022-08-03T10:51:19.721Z,1002.35
2022-08-03T10:52:33.810Z,1002.27
2022-08-03T10:53:20.069Z,1002.28
2022-08-03T10:54:19.707Z,1002.29
2022-08-03T10:55:20.678Z,1002.33
2022-08-03T10:56:19.677Z,1002.35
2022-08-03T10:57:19.715Z,1002.35
2022-08-03T10:58:30.335Z,1002.28
2022-08-03T10:59:28.158Z,1002.31
2022-08-03T11:00:19.663Z,1002.26
2022-08-03T11:01:19.712Z,1002.28
2022-08-03T11:02:19.649Z,1002.29
2022-08-03T11:03:19.690Z,1002.24
2022-08-03T11:04:19.642Z,1002.26
2022-08-03T11:05:19.647Z,1002.30
2022-08-03T11:06:19.639Z,1002.30
2022-08-03T11:07:20.046Z,1002.27
2022-08-03T11:08:19.688Z,1002.30
2022-08-03T11:09:19.646Z,1002.29
2022-08-03T11:10:19.627Z,1002.36
2022-08-03T11:11:19.620Z,1002.34
2022-08-03T11:12:19.616Z,1002.34
2022-08-03T11:13:19.612Z,1002.33
2022-08-03T11:14:19.645Z,1002.34
2022-08-03T11:15:19.601Z,1002.33
2022-08-03T11:16:21.894Z,1002.35
2022-08-03T11:17:19.954Z,1002.33
2022-08-03T11:18:19.584Z,1002.31
2022-08-03T11:19:19.618Z,1002.32
2022-08-03T11:20:19.574Z,1002.32
2022-08-03T11:21:19.572Z,1002.31
2022-08-03T11:22:19.573Z,1002.31
2022-08-03T11:23:19.569Z,1002.33
2022-08-03T11:24:19.584Z,1002.21
2022-08-03T11:25:34.826Z,1002.32
2022-08-03T11:26:19.543Z,1002.34
2022-08-03T11:27:19.876Z,1002.30
2022-08-03T11:28:19.540Z,1002.30
2022-08-03T11:29:19.563Z,1002.27
2022-08-03T11:30:19.526Z,1002.26
2022-08-03T11:31:46.797Z,1002.27
2022-08-03T11:32:19.697Z,1002.20
2022-08-03T11:33:19.516Z,1002.21
2022-08-03T11:34:19.515Z,1002.23
2022-08-03T11:35:19.580Z,1002.23
2022-08-03T11:36:32.328Z,1002.17
2022-08-03T11:37:19.878Z,1002.13
2022-08-03T11:38:19.494Z,1002.27
2022-08-03T11:39:19.488Z,1002.25
2022-08-03T11:40:19.482Z,1002.31
2022-08-03T11:41:19.477Z,1002.33
2022-08-03T11:42:19.471Z,1002.32
2022-08-03T11:43:19.479Z,1002.21
2022-08-03T11:44:19.469Z,1002.17
2022-08-03T11:45:19.520Z,1002.14
2022-08-03T11:46:29.531Z,1002.19
2022-08-03T11:47:20.154Z,1002.26
2022-08-03T11:48:20.595Z,1002.30
2022-08-03T11:49:19.509Z,1002.32
2022-08-03T11:50:19.467Z,1002.23
2022-08-03T11:51:19.443Z,1002.24
2022-08-03T11:52:19.486Z,1002.19
2022-08-03T11:53:19.433Z,1002.23
2022-08-03T11:54:19.426Z,1002.20
2022-08-03T11:55:19.449Z,1002.15
2022-08-03T11:56:19.442Z,1002.21
2022-08-03T11:57:19.610Z,1002.26
2022-08-03T11:59:03.380Z,1002.26
2022-08-03T11:59:22.176Z,1002.29
2022-08-03T12:00:19.410Z,1002.29
2022-08-03T12:01:23.009Z,1002.33
2022-08-03T12:02:19.406Z,1002.30
2022-08-03T12:03:19.440Z,1002.28
2022-08-03T12:04:19.398Z,1002.26
2022-08-03T12:05:19.403Z,1002.19